createdAt,value
2022-08-26T00:01:38.986Z,10.20
2022-08-26T00:04:06.410Z,11.07
2022-08-26T00:06:33.759Z,10.32
2022-08-26T00:09:01.071Z,9.38
2022-08-26T00:11:28.546Z,10.27
2022-08-26T00:13:56.744Z,11.18
2022-08-26T00:16:24.618Z,11.60
2022-08-26T00:18:53.096Z,11.45
2022-08-26T00:21:20.404Z,11.38
2022-08-26T00:23:47.542Z,12.52
2022-08-26T00:26:15.162Z,11.00
2022-08-26T00:28:42.517Z,12.80
2022-08-26T00:31:11.029Z,11.10
2022-08-26T00:33:38.771Z,10.45
2022-08-26T00:36:06.165Z,11.68
2022-08-26T00:38:33.674Z,12.75
2022-08-26T00:41:00.918Z,11.20
2022-08-26T00:43:28.151Z,11.43
2022-08-26T00:46:07.484Z,11.60
2022-08-26T00:48:35.603Z,11.80
2022-08-26T00:51:23.188Z,11.50
2022-08-26T00:53:56.159Z,11.38
2022-08-26T00:56:27.785Z,11.52
2022-08-26T00:58:57.330Z,11.00
2022-08-26T01:01:28.170Z,12.07
2022-08-26T01:03:57.939Z,11.27
2022-08-26T01:06:25.943Z,11.30
2022-08-26T01:08:53.305Z,12.00
2022-08-26T01:11:20.865Z,11.25
2022-08-26T01:13:49.378Z,11.13
2022-08-26T01:16:17.104Z,11.65
2022-08-26T01:18:44.976Z,11.63
2022-08-26T01:21:14.976Z,13.65
2022-08-26T01:23:45.543Z,12.57
2022-08-26T01:26:20.006Z,12.23
2022-08-26T01:28:50.638Z,12.60
2022-08-26T01:31:21.093Z,13.30
2022-08-26T01:33:58.126Z,12.20
2022-08-26T01:36:25.354Z,12.15
2022-08-26T01:38:52.874Z,11.85
2022-08-26T01:41:27.311Z,11.60
2022-08-26T01:43:57.914Z,12.13
2022-08-26T01:46:26.883Z,12.77
2022-08-26T01:48:55.230Z,12.27
2022-08-26T01:51:24.296Z,11.15
2022-08-26T01:53:51.582Z,12.07
2022-08-26T01:56:22.184Z,12.20
2022-08-26T01:58:54.366Z,12.57
2022-08-26T02:01:22.340Z,12.23
2022-08-26T02:04:12.717Z,12.23
2022-08-26T02:06:40.058Z,12.13
2022-08-26T02:09:08.061Z,13.30
2022-08-26T02:11:36.907Z,12.18
2022-08-26T02:14:15.427Z,12.38
2022-08-26T02:16:45.487Z,11.40
2022-08-26T02:19:17.874Z,12.52
2022-08-26T02:21:46.087Z,11.63
2022-08-26T02:24:22.882Z,12.23
2022-08-26T02:26:51.703Z,11.43
2022-08-26T02:29:19.676Z,12.57
2022-08-26T02:31:48.581Z,11.77
2022-08-26T02:34:17.462Z,12.48
2022-08-26T02:36:44.599Z,12.63
2022-08-26T02:39:11.806Z,12.45
2022-08-26T02:41:45.025Z,11.90
2022-08-26T02:44:13.186Z,11.57
2022-08-26T02:46:41.178Z,13.18
2022-08-26T02:49:09.408Z,11.85
2022-08-26T02:51:36.926Z,11.73
2022-08-26T02:54:04.584Z,11.95
2022-08-26T02:56:33.428Z,12.38
2022-08-26T02:59:02.694Z,12.45
2022-08-26T03:01:32.544Z,11.98
2022-08-26T03:04:00.586Z,12.27
2022-08-26T03:06:27.784Z,12.35
2022-08-26T03:08:55.840Z,13.48
2022-08-26T03:11:23.761Z,13.93
2022-08-26T03:13:52.116Z,12.63
2022-08-26T03:16:20.556Z,12.88
2022-08-26T03:18:52.322Z,12.88
2022-08-26T03:21:20.938Z,12.15
2022-08-26T03:23:48.332Z,12.20
2022-08-26T03:26:15.999Z,12.43
2022-08-26T03:29:02.120Z,12.55
2022-08-26T03:31:29.934Z,12.70
2022-08-26T03:33:59.804Z,12.70
2022-08-26T03:36:27.142Z,11.80
2022-08-26T03:38:54.383Z,11.85
2022-08-26T03:41:21.798Z,12.73
2022-08-26T03:43:50.794Z,12.57
2022-08-26T03:46:19.276Z,14.25
2022-08-26T03:48:46.784Z,12.52
2022-08-26T03:51:18.372Z,13.77
2022-08-26T03:53:48.118Z,12.68
2022-08-26T03:56:15.761Z,12.77
2022-08-26T03:58:44.545Z,12.75
2022-08-26T04:01:14.066Z,12.82
2022-08-26T04:04:00.536Z,12.68
2022-08-26T04:06:29.068Z,12.23
2022-08-26T04:08:57.516Z,13.80
2022-08-26T04:11:28.431Z,12.88
2022-08-26T04:13:59.571Z,13.13
2022-08-26T04:16:27.862Z,14.05
2022-08-26T04:18:55.166Z,12.63
2022-08-26T04:21:23.034Z,13.25
2022-08-26T04:23:50.303Z,13.05
2022-08-26T04:26:18.893Z,12.02
2022-08-26T04:28:46.864Z,13.25
2022-08-26T04:31:16.014Z,12.63
2022-08-26T04:33:43.586Z,13.27
2022-08-26T04:36:11.006Z,13.05
2022-08-26T04:38:38.954Z,13.15
2022-08-26T04:41:15.624Z,13.18
2022-08-26T04:43:44.378Z,13.15
2022-08-26T04:46:13.042Z,14.73
2022-08-26T04:48:41.244Z,13.40
2022-08-26T04:51:09.704Z,13.85
2022-08-26T04:53:37.568Z,14.30
2022-08-26T04:56:05.477Z,14.20
2022-08-26T04:58:32.858Z,14.18
2022-08-26T05:01:00.253Z,14.13
2022-08-26T05:03:30.509Z,14.38
2022-08-26T05:05:59.026Z,12.98
2022-08-26T05:08:26.399Z,12.85
2022-08-26T05:10:56.169Z,12.20
2022-08-26T05:13:25.480Z,12.50
2022-08-26T05:15:52.931Z,12.15
2022-08-26T05:18:22.745Z,12.50
2022-08-26T05:20:54.739Z,11.88
2022-08-26T05:23:22.890Z,11.90
2022-08-26T05:25:53.601Z,12.65
2022-08-26T05:28:23.179Z,12.43
2022-08-26T05:30:50.802Z,11.60
2022-08-26T05:33:18.389Z,11.40
2022-08-26T05:35:46.159Z,11.23
2022-08-26T05:38:15.537Z,11.90
2022-08-26T05:40:44.916Z,11.35
2022-08-26T05:43:13.426Z,11.50
2022-08-26T05:45:45.879Z,10.85
2022-08-26T05:48:13.944Z,11.38
2022-08-26T05:50:45.829Z,11.65
2022-08-26T05:53:13.964Z,10.75
2022-08-26T05:55:44.854Z,9.73
2022-08-26T05:58:13.243Z,10.45
2022-08-26T06:00:41.600Z,10.10
2022-08-26T06:03:09.136Z,9.75
2022-08-26T06:05:40.040Z,9.32
2022-08-26T06:08:16.447Z,9.40
2022-08-26T06:10:47.686Z,9.50
2022-08-26T06:13:18.324Z,9.20
2022-08-26T06:15:47.073Z,8.45
2022-08-26T06:18:15.030Z,8.57
2022-08-26T06:20:57.382Z,8.68
2022-08-26T06:23:44.451Z,9.68
2022-08-26T06:26:12.005Z,8.73
2022-08-26T06:28:39.154Z,9.70
2022-08-26T06:31:06.454Z,10.88
2022-08-26T06:33:33.647Z,8.73
2022-08-26T06:36:01.240Z,10.00
2022-08-26T06:38:28.711Z,8.75
2022-08-26T06:40:57.860Z,8.85
2022-08-26T06:43:27.810Z,10.20
2022-08-26T06:46:07.138Z,10.43
2022-08-26T06:48:34.622Z,9.10
2022-08-26T06:51:13.220Z,8.95
2022-08-26T06:53:41.554Z,8.85
2022-08-26T06:56:10.483Z,9.43
2022-08-26T06:58:39.337Z,7.53
2022-08-26T07:01:16.814Z,7.93
2022-08-26T07:03:46.633Z,7.40
2022-08-26T07:06:14.299Z,8.57
2022-08-26T07:08:41.713Z,8.93
2022-08-26T07:11:10.472Z,9.13
2022-08-26T07:13:38.045Z,9.10
2022-08-26T07:16:05.930Z,9.40
2022-08-26T07:18:34.351Z,9.93
2022-08-26T07:21:02.823Z,8.95
2022-08-26T07:23:30.336Z,8.48
2022-08-26T07:25:57.491Z,9.23
2022-08-26T07:28:25.170Z,9.48
2022-08-26T07:30:52.827Z,9.27
2022-08-26T07:33:20.335Z,8.85
2022-08-26T07:35:47.516Z,9.07
2022-08-26T07:38:14.716Z,8.65
2022-08-26T07:40:42.506Z,15.93
2022-08-26T07:43:10.190Z,9.85
2022-08-26T07:45:38.152Z,8.70
2022-08-26T07:48:05.739Z,9.43
2022-08-26T07:50:49.233Z,8.73
2022-08-26T07:55:45.310Z,8.25
2022-08-26T07:58:12.450Z,8.82
2022-08-26T08:00:39.667Z,8.05
2022-08-26T08:03:07.553Z,8.10
2022-08-26T08:05:36.704Z,7.70
2022-08-26T08:08:26.522Z,8.68
2022-08-26T08:10:52.310Z,8.23
2022-08-26T08:13:19.857Z,8.10
2022-08-26T08:15:47.814Z,8.18
2022-08-26T08:18:17.604Z,8.32
2022-08-26T08:20:54.638Z,7.85
2022-08-26T08:23:32.416Z,8.25
2022-08-26T08:26:03.049Z,7.95
2022-08-26T08:28:30.326Z,7.45
2022-08-26T08:30:57.832Z,7.43
2022-08-26T08:33:26.069Z,7.80
2022-08-26T08:35:55.056Z,8.13
2022-08-26T08:38:22.254Z,7.13
2022-08-26T08:40:49.739Z,7.82
2022-08-26T08:43:39.699Z,7.25
2022-08-26T08:46:10.940Z,7.50
2022-08-26T08:48:39.730Z,7.55
2022-08-26T08:51:15.035Z,8.18
2022-08-26T08:53:44.702Z,7.40
2022-08-26T08:56:11.863Z,7.53
2022-08-26T08:59:05.618Z,8.40
2022-08-26T09:01:39.503Z,7.53
2022-08-26T09:04:22.353Z,7.75
2022-08-26T09:06:53.409Z,7.13
2022-08-26T09:09:23.343Z,7.72
2022-08-26T09:11:50.867Z,7.38
2022-08-26T09:14:18.758Z,7.78
2022-08-26T09:16:51.623Z,7.47
2022-08-26T09:19:19.251Z,7.30
2022-08-26T09:21:47.251Z,8.25
2022-08-26T09:24:22.317Z,8.52
2022-08-26T09:26:57.780Z,8.30
2022-08-26T09:29:33.934Z,7.80
2022-08-26T09:32:24.340Z,7.80
2022-08-26T09:34:58.017Z,7.00
2022-08-26T09:37:35.485Z,7.60
2022-08-26T09:40:18.184Z,7.60
2022-08-26T09:42:45.483Z,6.65
2022-08-26T09:45:15.496Z,7.75
2022-08-26T09:47:47.249Z,7.20
2022-08-26T09:50:29.079Z,7.32
2022-08-26T09:53:15.322Z,7.78
2022-08-26T09:55:51.223Z,7.93
2022-08-26T09:58:38.106Z,7.80
2022-08-26T10:01:09.431Z,8.85
2022-08-26T10:03:38.279Z,8.00
2022-08-26T10:06:05.478Z,7.82
2022-08-26T10:08:35.342Z,7.70
2022-08-26T10:11:04.681Z,8.02
2022-08-26T10:13:31.794Z,7.45
2022-08-26T10:16:04.463Z,7.97
2022-08-26T10:18:34.786Z,7.70
2022-08-26T10:21:04.894Z,8.32
2022-08-26T10:23:37.881Z,8.85
2022-08-26T10:26:18.743Z,7.85
2022-08-26T10:28:48.688Z,8.38
2022-08-26T10:31:27.446Z,9.60
2022-08-26T10:33:58.826Z,7.70
2022-08-26T10:37:13.560Z,8.48
2022-08-26T10:40:03.038Z,8.65
2022-08-26T10:42:35.350Z,9.00
2022-08-26T10:45:07.592Z,7.50
2022-08-26T10:47:43.982Z,7.55
2022-08-26T10:50:11.590Z,7.63
2022-08-26T10:52:43.072Z,7.00
2022-08-26T10:55:17.504Z,7.75
2022-08-26T11:00:40.215Z,7.95
2022-08-26T11:03:36.346Z,7.45
2022-08-26T11:06:20.035Z,8.00
2022-08-26T11:08:48.178Z,8.10
2022-08-26T11:11:41.782Z,7.05
2022-08-26T11:14:12.063Z,7.50
2022-08-26T11:16:44.490Z,6.82
2022-08-26T11:19:45.626Z,7.15
2022-08-26T11:22:31.167Z,7.00
2022-08-26T11:24:58.910Z,6.78
2022-08-26T11:27:26.552Z,6.95
2022-08-26T11:30:24.164Z,6.20
2022-08-26T11:32:52.986Z,6.10
2022-08-26T11:35:20.452Z,5.88
2022-08-26T11:37:56.593Z,5.40
2022-08-26T11:40:35.362Z,6.32
2022-08-26T11:43:13.401Z,6.00
2022-08-26T11:45:42.700Z,6.05
2022-08-26T11:48:20.975Z,6.00
2022-08-26T11:51:00.675Z,5.88
2022-08-26T11:53:30.934Z,5.65
2022-08-26T11:56:02.690Z,5.60
2022-08-26T11:58:30.325Z,6.43
2022-08-26T12:01:03.593Z,5.90
2022-08-26T12:03:45.989Z,6.03
2022-08-26T12:06:14.307Z,5.10
2022-08-26T12:08:43.819Z,5.97
2022-08-26T12:11:13.673Z,5.53
2022-08-26T12:13:42.199Z,5.45
2022-08-26T12:16:09.929Z,5.25
2022-08-26T12:18:38.450Z,4.55
2022-08-26T12:21:13.750Z,5.43
2022-08-26T12:23:46.806Z,5.70
2022-08-26T12:26:23.362Z,5.78
2022-08-26T12:28:53.399Z,5.68
2022-08-26T12:31:25.952Z,5.53
2022-08-26T12:33:54.067Z,5.53
2022-08-26T12:36:23.110Z,5.90
2022-08-26T12:38:50.422Z,5.22
2022-08-26T12:41:38.534Z,5.40
2022-08-26T12:44:05.962Z,5.88
2022-08-26T12:46:33.122Z,6.22
2022-08-26T12:49:04.086Z,5.88
2022-08-26T12:51:32.667Z,6.20
2022-08-26T12:53:59.990Z,6.07
2022-08-26T12:56:29.952Z,6.30
2022-08-26T12:59:03.205Z,5.85
2022-08-26T13:01:37.949Z,5.45
2022-08-26T13:04:06.560Z,5.68
2022-08-26T13:06:34.987Z,5.82
2022-08-26T13:09:07.897Z,6.20
2022-08-26T13:11:40.923Z,5.75
2022-08-26T13:14:10.082Z,5.50
2022-08-26T13:16:37.799Z,5.95
2022-08-26T13:19:06.319Z,5.43
2022-08-26T13:22:07.582Z,5.50
2022-08-26T13:24:39.349Z,6.43
2022-08-26T13:27:07.566Z,6.25
2022-08-26T13:29:35.119Z,5.90
2022-08-26T13:32:02.342Z,5.57
2022-08-26T13:34:30.645Z,6.65
2022-08-26T13:36:58.364Z,5.70
2022-08-26T13:39:28.035Z,5.90
2022-08-26T13:41:55.470Z,5.38
2022-08-26T13:44:22.754Z,5.95
2022-08-26T13:46:49.903Z,6.10
2022-08-26T13:49:17.070Z,5.57
2022-08-26T13:51:44.207Z,6.22
2022-08-26T13:54:11.361Z,6.35
2022-08-26T13:56:38.714Z,5.97
2022-08-26T13:59:06.532Z,5.90
2022-08-26T14:01:34.698Z,5.95
2022-08-26T14:04:03.134Z,5.97
2022-08-26T14:06:30.878Z,5.97
2022-08-26T14:08:58.579Z,5.65
2022-08-26T14:11:26.037Z,5.90
2022-08-26T14:13:53.221Z,5.72
2022-08-26T14:16:26.488Z,5.28
2022-08-26T14:18:54.211Z,5.90
2022-08-26T14:21:21.654Z,6.10
2022-08-26T14:23:48.859Z,5.45
2022-08-26T14:26:28.263Z,5.50
2022-08-26T14:28:57.527Z,5.72
2022-08-26T14:31:26.763Z,5.63
2022-08-26T14:33:54.005Z,5.25
2022-08-26T14:36:33.540Z,5.88
2022-08-26T14:39:02.674Z,5.18
2022-08-26T14:41:30.751Z,5.43
2022-08-26T14:44:02.992Z,5.00
2022-08-26T14:46:31.651Z,5.35
2022-08-26T14:49:02.035Z,5.57
2022-08-26T14:51:30.293Z,5.95
2022-08-26T14:54:12.891Z,5.55
2022-08-26T14:56:44.807Z,5.90
2022-08-26T14:59:12.119Z,6.07
2022-08-26T15:01:39.296Z,5.85
2022-08-26T15:04:06.775Z,5.55
2022-08-26T15:06:35.903Z,5.55
2022-08-26T15:09:03.368Z,5.45
2022-08-26T15:11:30.545Z,5.70
2022-08-26T15:13:57.767Z,6.13
2022-08-26T15:16:25.196Z,5.30
2022-08-26T15:18:52.527Z,5.20
2022-08-26T15:21:20.502Z,5.10
2022-08-26T15:23:48.989Z,5.22
2022-08-26T15:26:16.575Z,5.72
2022-08-26T15:28:43.826Z,5.13
2022-08-26T15:31:11.366Z,4.88
2022-08-26T15:33:39.198Z,5.10
2022-08-26T15:36:07.418Z,6.22
2022-08-26T15:38:35.767Z,7.05
2022-08-26T15:41:03.479Z,6.53
2022-08-26T15:43:30.638Z,6.30
2022-08-26T15:45:57.904Z,6.68
2022-08-26T15:48:25.055Z,6.57
2022-08-26T15:50:57.323Z,6.60
2022-08-26T15:53:25.196Z,6.93
2022-08-26T15:55:54.749Z,6.55
2022-08-26T15:58:24.841Z,6.10
2022-08-26T16:00:54.590Z,6.45
2022-08-26T16:03:21.828Z,7.30
2022-08-26T16:05:49.092Z,7.18
2022-08-26T16:08:16.958Z,7.18
2022-08-26T16:10:49.997Z,7.55
2022-08-26T16:13:18.186Z,7.35
2022-08-26T16:15:45.467Z,7.10
2022-08-26T16:18:13.848Z,6.82
2022-08-26T16:20:55.390Z,7.18
2022-08-26T16:23:35.992Z,6.60
2022-08-26T16:26:10.525Z,7.20
2022-08-26T16:31:05.641Z,6.72
2022-08-26T16:33:32.786Z,7.10
2022-08-26T16:36:00.121Z,7.47
2022-08-26T16:38:27.430Z,7.28
2022-08-26T16:40:54.579Z,6.75
2022-08-26T16:43:22.283Z,6.55
2022-08-26T16:45:49.413Z,6.40
2022-08-26T16:48:16.582Z,7.07
2022-08-26T16:50:43.743Z,7.65
2022-08-26T16:55:45.738Z,7.30
2022-08-26T16:58:13.096Z,7.30
2022-08-26T17:00:40.285Z,6.88
2022-08-26T17:03:07.491Z,8.00
2022-08-26T17:05:36.213Z,7.45
2022-08-26T17:08:03.817Z,8.07
2022-08-26T17:10:31.625Z,7.15
2022-08-26T17:12:58.838Z,7.40
2022-08-26T17:15:26.162Z,7.53
2022-08-26T17:17:53.555Z,6.93
2022-08-26T17:20:22.265Z,7.05
2022-08-26T17:22:49.826Z,7.53
2022-08-26T17:25:22.672Z,7.10
2022-08-26T17:27:49.883Z,7.13
2022-08-26T17:30:17.358Z,7.72
2022-08-26T17:32:45.016Z,7.70
2022-08-26T17:35:13.044Z,7.75
2022-08-26T17:37:40.287Z,7.18
2022-08-26T17:40:09.745Z,7.45
2022-08-26T17:42:40.402Z,7.75
2022-08-26T17:45:08.652Z,7.55
2022-08-26T17:47:35.888Z,7.43
2022-08-26T17:50:03.662Z,7.40
2022-08-26T17:52:30.794Z,6.97
2022-08-26T17:54:59.151Z,7.15
2022-08-26T17:57:26.501Z,7.00
2022-08-26T17:59:53.739Z,7.38
2022-08-26T18:02:23.278Z,7.00
2022-08-26T18:04:50.727Z,6.70
2022-08-26T18:07:17.982Z,6.90
2022-08-26T18:09:45.188Z,7.30
2022-08-26T18:12:12.927Z,6.90
2022-08-26T18:14:40.078Z,7.78
2022-08-26T18:17:07.806Z,8.00
2022-08-26T18:19:35.268Z,7.80
2022-08-26T18:22:02.614Z,7.60
2022-08-26T18:24:32.158Z,7.25
2022-08-26T18:26:59.314Z,7.70
2022-08-26T18:29:27.479Z,7.55
2022-08-26T18:31:54.691Z,7.88
2022-08-26T18:34:22.030Z,8.07
2022-08-26T18:36:52.168Z,8.20
2022-08-26T18:39:19.491Z,7.28
2022-08-26T18:41:53.159Z,8.20
2022-08-26T18:44:24.223Z,7.43
2022-08-26T18:46:52.074Z,7.57
2022-08-26T18:49:20.471Z,7.47
2022-08-26T18:51:47.784Z,6.82
2022-08-26T18:54:15.132Z,8.68
2022-08-26T18:56:43.666Z,7.80
2022-08-26T18:59:11.527Z,7.72
2022-08-26T19:01:40.725Z,8.55
2022-08-26T19:04:08.572Z,9.10
2022-08-26T19:06:42.328Z,7.05
2022-08-26T19:09:11.114Z,7.38
2022-08-26T19:11:42.304Z,6.80
2022-08-26T19:14:13.031Z,7.53
2022-08-26T19:16:40.799Z,4.40
2022-08-26T19:19:08.021Z,4.22
2022-08-26T19:21:36.242Z,3.85
2022-08-26T19:24:04.555Z,3.17
2022-08-26T19:26:32.526Z,4.15
2022-08-26T19:28:59.728Z,4.38
2022-08-26T19:31:27.232Z,4.88
2022-08-26T19:33:54.427Z,4.57
2022-08-26T19:36:23.872Z,4.18
2022-08-26T19:38:51.446Z,5.85
2022-08-26T19:41:20.386Z,4.60
2022-08-26T19:43:47.951Z,3.80
2022-08-26T19:46:19.969Z,3.92
2022-08-26T19:48:47.735Z,3.47
2022-08-26T19:51:15.837Z,3.90
2022-08-26T19:53:44.115Z,3.40
2022-08-26T19:56:13.138Z,3.90
2022-08-26T19:58:40.903Z,3.70
2022-08-26T20:01:08.614Z,3.70
2022-08-26T20:03:36.515Z,3.67
2022-08-26T20:06:05.173Z,3.83
2022-08-26T20:08:32.806Z,3.53
2022-08-26T20:11:04.815Z,4.03
2022-08-26T20:13:32.334Z,3.90
2022-08-26T20:15:59.510Z,3.92
2022-08-26T20:18:45.130Z,4.50
2022-08-26T20:21:28.117Z,3.38
2022-08-26T20:23:56.782Z,3.47
2022-08-26T20:26:24.027Z,4.40
2022-08-26T20:28:51.342Z,4.72
2022-08-26T20:31:19.343Z,4.70
2022-08-26T20:33:47.010Z,4.10
2022-08-26T20:36:15.146Z,3.97
2022-08-26T20:38:42.284Z,3.78
2022-08-26T20:41:09.468Z,4.32
2022-08-26T20:43:36.666Z,3.80
2022-08-26T20:46:04.767Z,3.80
2022-08-26T20:48:37.991Z,4.35
2022-08-26T20:51:05.599Z,3.83
2022-08-26T20:53:32.810Z,4.18
2022-08-26T20:56:04.643Z,3.50
2022-08-26T20:58:31.917Z,3.95
2022-08-26T21:00:59.875Z,3.90
2022-08-26T21:03:29.631Z,4.18
2022-08-26T21:05:56.917Z,4.18
2022-08-26T21:08:24.045Z,4.40
2022-08-26T21:10:52.574Z,4.00
2022-08-26T21:13:19.839Z,3.55
2022-08-26T21:15:46.989Z,4.22
2022-08-26T21:18:14.183Z,3.80
2022-08-26T21:20:41.332Z,4.50
2022-08-26T21:23:08.517Z,4.68
2022-08-26T21:25:35.663Z,4.20
2022-08-26T21:28:02.895Z,4.28
2022-08-26T21:30:30.065Z,4.28
2022-08-26T21:32:57.235Z,4.25
2022-08-26T21:35:24.356Z,5.28
2022-08-26T21:37:51.511Z,4.68
2022-08-26T21:40:18.670Z,5.20
2022-08-26T21:42:46.051Z,5.40
2022-08-26T21:45:15.195Z,5.75
2022-08-26T21:47:42.367Z,5.45
2022-08-26T21:50:09.631Z,5.82
2022-08-26T21:52:37.559Z,4.75
2022-08-26T21:55:09.013Z,5.40
2022-08-26T21:57:36.435Z,5.75
2022-08-26T22:00:04.645Z,6.30
2022-08-26T22:02:32.691Z,4.88
2022-08-26T22:04:59.890Z,5.20
2022-08-26T22:07:27.060Z,5.53
2022-08-26T22:09:54.216Z,5.68
2022-08-26T22:12:21.382Z,5.90
2022-08-26T22:14:49.255Z,5.63
2022-08-26T22:17:16.910Z,5.43
2022-08-26T22:19:46.196Z,5.22
2022-08-26T22:22:14.310Z,5.13
2022-08-26T22:24:43.211Z,5.40
2022-08-26T22:27:11.925Z,5.38
2022-08-26T22:29:39.142Z,4.82
2022-08-26T22:32:06.655Z,4.78
2022-08-26T22:34:34.031Z,5.07
2022-08-26T22:37:03.124Z,5.07
2022-08-26T22:39:30.289Z,4.65
2022-08-26T22:41:57.518Z,4.95
2022-08-26T22:44:24.731Z,4.28
2022-08-26T22:46:54.133Z,5.60
2022-08-26T22:49:21.857Z,5.15
2022-08-26T22:51:49.142Z,6.10
2022-08-26T22:54:16.625Z,5.90
2022-08-26T22:56:44.767Z,6.22
2022-08-26T22:59:12.413Z,6.82
2022-08-26T23:01:40.600Z,5.97
2022-08-26T23:04:08.103Z,7.45
2022-08-26T23:06:38.886Z,7.22
2022-08-26T23:09:06.771Z,7.35
2022-08-26T23:11:34.011Z,6.97
2022-08-26T23:14:02.313Z,7.30
2022-08-26T23:16:35.619Z,7.78
2022-08-26T23:19:06.381Z,8.38
2022-08-26T23:21:33.858Z,8.05
2022-08-26T23:24:02.255Z,8.13
2022-08-26T23:26:29.482Z,7.72
2022-08-26T23:28:56.659Z,7.10
2022-08-26T23:31:24.008Z,8.63
2022-08-26T23:34:09.943Z,9.50
2022-08-26T23:36:37.280Z,8.90
2022-08-26T23:39:06.487Z,8.90
2022-08-26T23:41:35.638Z,9.55
2022-08-26T23:44:05.000Z,8.48
2022-08-26T23:46:32.942Z,8.55
2022-08-26T23:49:00.481Z,7.93
2022-08-26T23:51:46.581Z,8.38
2022-08-26T23:54:15.423Z,7.75
2022-08-26T23:56:42.853Z,7.97
2022-08-26T23:59:10.043Z,8.38
